Jose Celestino Mutis Airport


Codes: SKQU/MQU
Name: Jose Celestino Mutis Airport
City: Mariquita
Country: Colombia
Elevation: 1531 ft.

Photos at Jose Celestino Mutis Airport


   Photos courtesy of SpottingLog. You can add your own sightings and photos by signing up for a free trial today.



No photos found.

Weather at Jose Celestino Mutis Airport


Time (UTC)DescriptionTempratureWindCloud coverageVisibilityPressureHumidity
25-Jun-2024 15:00Broken Clouds24°C4 mph, SE57%10000m1014hPa80%
25-Jun-2024 18:00Scattered Clouds27°C4 mph, S44%10000m1011hPa65%
25-Jun-2024 21:00Light Rain30°C4 mph, S4%10000m1007hPa63%
26-Jun-2024 00:00Light Rain24°C2 mph, S44%10000m1010hPa86%
26-Jun-2024 03:00Light Rain23°C4 mph, NW100%2745m1013hPa91%
26-Jun-2024 06:00Moderate Rain22°C2 mph, NW97%10000m1013hPa97%
26-Jun-2024 09:00Light Rain21°C2 mph, W91%10000m1013hPa96%
26-Jun-2024 12:00Light Rain22°C2 mph, W93%10000m1014hPa93%
26-Jun-2024 15:00Light Rain26°C2 mph, SE54%10000m1015hPa71%
26-Jun-2024 18:00Light Rain29°C7 mph, S55%10000m1011hPa63%
26-Jun-2024 21:00Light Rain27°C7 mph, SW100%10000m1009hPa75%
27-Jun-2024 00:00Light Rain23°C2 mph, NW100%10000m1011hPa89%
27-Jun-2024 03:00Light Rain23°C2 mph, W96%10000m1013hPa91%
27-Jun-2024 06:00Light Rain21°C2 mph, W98%10000m1013hPa94%
27-Jun-2024 09:00Light Rain20°C2 mph, W73%10000m1013hPa92%
27-Jun-2024 12:00Broken Clouds22°C2 mph, SW61%10000m1014hPa86%
27-Jun-2024 15:00Scattered Clouds27°C4 mph, SE35%10000m1013hPa68%
27-Jun-2024 18:00Few Clouds31°C4 mph, SE18%10000m1009hPa51%
27-Jun-2024 21:00Light Rain29°C4 mph, S12%10000m1007hPa63%
28-Jun-2024 00:00Light Rain23°C4 mph, NW39%10000m1010hPa92%
28-Jun-2024 03:00Moderate Rain22°C4 mph, NW97%10000m1013hPa98%
28-Jun-2024 06:00Light Rain21°C2 mph, N98%10000m1013hPa98%
28-Jun-2024 09:00Light Rain20°C2 mph, N100%0m1012hPa99%
28-Jun-2024 12:00Light Rain21°C2 mph, N100%10000m1014hPa97%
28-Jun-2024 15:00Light Rain22°C4 mph, NE100%10000m1016hPa94%
28-Jun-2024 18:00Light Rain24°C4 mph, NE100%10000m1013hPa83%
28-Jun-2024 21:00Light Rain25°C2 mph, NE100%10000m1011hPa82%
29-Jun-2024 00:00Light Rain22°C2 mph, NW100%10000m1013hPa95%
29-Jun-2024 03:00Light Rain21°C2 mph, NW100%10000m1015hPa95%
29-Jun-2024 06:00Light Rain21°C2 mph, N100%10000m1014hPa97%
29-Jun-2024 09:00Light Rain20°C2 mph, N100%10000m1014hPa98%
29-Jun-2024 12:00Overcast Clouds21°C2 mph, NW100%10000m1015hPa96%
29-Jun-2024 15:00Light Rain23°C2 mph, SE100%10000m1016hPa92%
29-Jun-2024 18:00Light Rain27°C2 mph, SE100%10000m1013hPa71%
29-Jun-2024 21:00Light Rain27°C2 mph, SE98%10000m1010hPa72%
30-Jun-2024 00:00Light Rain23°C2 mph, NW91%10000m1012hPa88%
30-Jun-2024 03:00Moderate Rain22°C2 mph, NW83%10000m1014hPa94%
30-Jun-2024 06:00Moderate Rain21°C2 mph, NW90%10000m1015hPa97%
30-Jun-2024 09:00Light Rain21°C2 mph, NW100%10000m1015hPa96%
30-Jun-2024 12:00Light Rain22°C2 mph, SW100%10000m1015hPa91%